Time;durP1;ratioP1;P1;durP2;ratioP2;P2;SDS_P1;SDS_P2;PMS_P1;PMS_P2;Temp;Humidity;BMP_temperature;BMP_pressure;BME280_temperature;BME280_humidity;BME280_pressure;Samples;Min_cycle;Max_cycle;Signal;HPM_P1;HPM_P2
2023/04/15 00:00:28;;;;;;;4.37;3.33;;;11.30;38.50;;;;;;10415558;28;20237;-71
2023/04/15 00:05:32;;;;;;;5.00;3.27;;;11.20;38.40;;;;;;10415992;28;20229;-71
2023/04/15 00:10:36;;;;;;;3.50;3.23;;;11.20;38.40;;;;;;10414635;28;20230;-71
2023/04/15 00:15:39;;;;;;;3.83;3.27;;;11.20;38.70;;;;;;10414484;28;20233;-71
2023/04/15 00:20:43;;;;;;;3.80;3.50;;;11.20;38.70;;;;;;10413268;28;20303;-71
2023/04/15 00:25:47;;;;;;;3.70;3.40;;;11.20;38.70;;;;;;10412811;28;20233;-71
2023/04/15 00:30:50;;;;;;;4.03;3.73;;;11.20;38.90;;;;;;10413093;28;20249;-71
2023/04/15 00:35:53;;;;;;;3.63;3.33;;;11.20;38.70;;;;;;10412947;28;20246;-71
2023/04/15 00:40:58;;;;;;;4.00;3.70;;;11.10;38.70;;;;;;10413120;28;20228;-71
2023/04/15 00:46:03;;;;;;;3.77;3.50;;;11.10;38.90;;;;;;10412881;28;20233;-71
2023/04/15 00:51:07;;;;;;;4.27;3.87;;;11.10;38.80;;;;;;10412231;28;20228;-71
2023/04/15 00:56:11;;;;;;;3.77;3.47;;;11.00;38.80;;;;;;10411321;28;20237;-71
2023/04/15 01:01:15;;;;;;;4.27;3.87;;;11.00;39.00;;;;;;10411224;28;20306;-71
2023/04/15 01:06:18;;;;;;;3.87;3.57;;;11.00;39.00;;;;;;10410579;28;20229;-71
2023/04/15 01:11:24;;;;;;;3.93;3.63;;;10.90;39.00;;;;;;10410020;28;20233;-71
2023/04/15 01:16:28;;;;;;;3.90;3.60;;;10.90;39.30;;;;;;10409640;28;20237;-70
2023/04/15 01:21:32;;;;;;;3.87;3.50;;;10.90;39.20;;;;;;10410227;28;20642;-73
2023/04/15 01:26:37;;;;;;;4.20;3.80;;;10.90;39.10;;;;;;10409859;28;20602;-71
2023/04/15 01:31:40;;;;;;;3.70;3.37;;;10.90;39.40;;;;;;10409979;28;20225;-71
2023/04/15 01:36:43;;;;;;;3.87;3.57;;;10.90;39.30;;;;;;10409602;28;20221;-71
2023/04/15 01:41:48;;;;;;;4.10;3.70;;;10.90;39.30;;;;;;10409432;28;20221;-71
2023/04/15 01:46:51;;;;;;;3.97;3.60;;;10.90;40.00;;;;;;10409107;28;20230;-71
2023/04/15 01:51:54;;;;;;;3.73;3.53;;;10.80;39.20;;;;;;10410048;28;20252;-71
2023/04/15 01:56:59;;;;;;;3.90;3.60;;;10.80;39.10;;;;;;10410109;28;20725;-71
2023/04/15 02:02:03;;;;;;;4.43;3.60;;;10.90;39.30;;;;;;10409376;28;20236;-71
2023/04/15 02:07:06;;;;;;;4.23;3.93;;;10.80;39.10;;;;;;10410753;28;20244;-71
2023/04/15 02:12:11;;;;;;;4.60;4.20;;;10.70;39.00;;;;;;10409505;28;20248;-71
2023/04/15 02:17:14;;;;;;;4.23;3.93;;;10.70;39.20;;;;;;10409872;28;20236;-71
2023/04/15 02:22:18;;;;;;;4.40;4.10;;;10.70;39.20;;;;;;10408983;28;20300;-71
2023/04/15 02:27:22;;;;;;;4.73;4.33;;;10.60;39.30;;;;;;10408341;28;20236;-71
2023/04/15 02:32:25;;;;;;;5.37;4.20;;;10.60;39.40;;;;;;10408844;28;20225;-71
2023/04/15 02:37:30;;;;;;;5.07;4.67;;;10.60;39.30;;;;;;10408518;28;20234;-71
2023/04/15 02:42:36;;;;;;;5.00;4.60;;;10.60;39.50;;;;;;10408731;28;20233;-71
2023/04/15 02:47:40;;;;;;;5.17;4.77;;;10.50;39.40;;;;;;10407836;28;20681;-71
2023/04/15 02:52:44;;;;;;;4.90;4.30;;;10.50;39.40;;;;;;10408230;28;20268;-71
2023/04/15 02:57:48;;;;;;;5.80;5.20;;;10.50;39.60;;;;;;10407951;28;20736;-71
2023/04/15 03:02:55;;;;;;;5.40;4.90;;;10.50;39.70;;;;;;10408246;28;20222;-71
2023/04/15 03:07:59;;;;;;;5.07;4.67;;;10.40;39.60;;;;;;10407322;28;20229;-71
2023/04/15 03:13:04;;;;;;;4.97;4.47;;;10.40;39.70;;;;;;10407265;28;20256;-70
2023/04/15 03:18:07;;;;;;;5.63;5.17;;;10.40;40.00;;;;;;10409044;28;20237;-70
2023/04/15 03:23:11;;;;;;;4.97;4.57;;;10.40;39.70;;;;;;10414736;28;20745;-71
2023/04/15 03:28:15;;;;;;;5.50;5.00;;;10.40;39.80;;;;;;10415489;28;20237;-71
2023/04/15 03:33:18;;;;;;;5.80;5.30;;;10.40;40.00;;;;;;10415156;28;20595;-71
2023/04/15 03:38:23;;;;;;;5.90;5.30;;;10.40;39.80;;;;;;10415087;28;20607;-71
2023/04/15 03:43:27;;;;;;;5.97;5.47;;;10.40;39.70;;;;;;10414027;28;20236;-70
2023/04/15 03:48:30;;;;;;;5.70;5.17;;;10.50;40.10;;;;;;10414663;28;20229;-71
2023/04/15 03:53:33;;;;;;;6.60;6.10;;;10.40;39.80;;;;;;10413941;28;20228;-71
2023/04/15 03:58:38;;;;;;;6.33;5.80;;;10.40;39.80;;;;;;10413889;28;20579;-71
2023/04/15 04:03:41;;;;;;;5.77;5.27;;;10.40;39.90;;;;;;10413934;28;20232;-71
2023/04/15 04:08:45;;;;;;;6.43;5.93;;;10.40;39.70;;;;;;10413566;28;20259;-70
2023/04/15 04:13:49;;;;;;;6.10;5.60;;;10.40;39.70;;;;;;10413798;28;20604;-71
2023/04/15 04:18:52;;;;;;;6.00;5.50;;;10.40;39.80;;;;;;10413280;28;20230;-71
2023/04/15 04:23:57;;;;;;;6.40;5.80;;;10.30;39.70;;;;;;10413160;28;20230;-71
2023/04/15 04:29:02;;;;;;;6.47;5.97;;;10.30;39.70;;;;;;10412792;28;20233;-71
2023/04/15 04:34:05;;;;;;;6.20;5.70;;;10.30;40.20;;;;;;10411225;28;20271;-71
2023/04/15 04:39:09;;;;;;;6.03;5.63;;;10.30;39.90;;;;;;10411934;28;20229;-71
2023/04/15 04:44:13;;;;;;;5.80;5.40;;;10.20;40.00;;;;;;10412319;28;20629;-71
2023/04/15 04:49:16;;;;;;;6.10;5.60;;;10.20;40.80;;;;;;10413476;28;20233;-71
2023/04/15 04:54:20;;;;;;;6.27;5.77;;;10.20;40.10;;;;;;10401995;28;20242;-71
2023/04/15 04:59:24;;;;;;;6.17;5.70;;;10.30;40.20;;;;;;10371142;28;20683;-71
2023/04/15 05:04:27;;;;;;;6.30;5.70;;;10.30;40.20;;;;;;10370293;28;20276;-71
2023/04/15 05:09:32;;;;;;;6.50;6.00;;;10.30;40.20;;;;;;10370557;28;20249;-71
2023/04/15 05:14:36;;;;;;;5.70;5.30;;;10.30;40.20;;;;;;10370892;28;20234;-70
2023/04/15 05:19:40;;;;;;;5.80;5.30;;;10.30;40.20;;;;;;10370988;28;20229;-71
2023/04/15 05:24:44;;;;;;;5.67;5.23;;;10.30;40.20;;;;;;10369927;28;20222;-72
2023/04/15 05:29:48;;;;;;;6.13;5.63;;;10.40;40.30;;;;;;10371637;28;20272;-71
2023/04/15 05:34:51;;;;;;;6.83;5.60;;;10.40;40.30;;;;;;10370949;28;20226;-72
2023/04/15 05:39:55;;;;;;;6.90;5.97;;;10.50;40.40;;;;;;10370362;28;20841;-72
2023/04/15 05:45:00;;;;;;;6.00;5.50;;;10.50;40.40;;;;;;10369729;28;20230;-71
2023/04/15 05:50:04;;;;;;;7.20;6.50;;;10.50;40.40;;;;;;10370388;28;20241;-72
2023/04/15 05:55:07;;;;;;;7.80;7.03;;;10.50;40.40;;;;;;10369921;28;20234;-72
2023/04/15 06:00:14;;;;;;;6.37;5.43;;;10.50;40.40;;;;;;10369866;28;20229;-72
2023/04/15 06:05:17;;;;;;;5.87;5.33;;;10.60;40.50;;;;;;10369811;28;20237;-74
2023/04/15 06:10:20;;;;;;;6.27;5.67;;;10.60;40.50;;;;;;10370945;28;20245;-71
2023/04/15 06:15:25;;;;;;;5.37;4.97;;;10.60;41.10;;;;;;10371835;28;20257;-72
2023/04/15 06:20:28;;;;;;;5.93;5.43;;;10.60;40.50;;;;;;10371027;28;20238;-72
2023/04/15 06:25:31;;;;;;;6.03;5.53;;;10.50;40.40;;;;;;10371364;28;20734;-72
2023/04/15 06:30:37;;;;;;;5.50;5.10;;;10.50;40.40;;;;;;10370854;28;20289;-72
2023/04/15 06:35:40;;;;;;;6.20;5.60;;;10.50;40.40;;;;;;10370419;28;20261;-72
2023/04/15 06:40:43;;;;;;;6.00;5.50;;;10.50;40.40;;;;;;10370012;28;20280;-72
2023/04/15 06:45:48;;;;;;;6.40;5.90;;;10.40;40.30;;;;;;10369487;28;20237;-71
2023/04/15 06:50:52;;;;;;;6.13;5.63;;;10.30;40.20;;;;;;10369887;28;20230;-72
2023/04/15 06:55:55;;;;;;;6.17;5.67;;;10.30;40.20;;;;;;10369161;28;20276;-72
2023/04/15 07:01:00;;;;;;;6.73;6.00;;;10.30;40.50;;;;;;10369871;28;20284;-71
2023/04/15 07:06:05;;;;;;;5.90;5.30;;;10.30;40.90;;;;;;10370403;28;20230;-72
2023/04/15 07:11:08;;;;;;;6.33;5.77;;;10.30;40.60;;;;;;10369947;28;20249;-72
2023/04/15 07:16:13;;;;;;;5.77;5.27;;;10.40;40.90;;;;;;10369850;28;20713;-72
2023/04/15 07:21:16;;;;;;;5.97;5.37;;;10.40;41.20;;;;;;10369923;28;20241;-72
2023/04/15 07:26:19;;;;;;;6.30;5.70;;;10.40;40.90;;;;;;10370094;28;20260;-71
2023/04/15 07:31:24;;;;;;;5.70;5.20;;;10.50;41.10;;;;;;10369995;28;20237;-72
2023/04/15 07:36:28;;;;;;;5.63;5.13;;;10.60;41.50;;;;;;10370382;28;20292;-73
2023/04/15 07:41:31;;;;;;;7.63;6.10;;;10.60;41.00;;;;;;10370404;28;20230;-72
2023/04/15 07:46:36;;;;;;;6.30;5.70;;;10.60;41.40;;;;;;10371860;28;20234;-75
2023/04/15 07:51:39;;;;;;;7.20;6.50;;;10.80;42.30;;;;;;10396289;28;20313;-72
2023/04/15 07:56:42;;;;;;;6.23;5.67;;;10.90;41.80;;;;;;10392236;28;20231;-72
2023/04/15 08:01:47;;;;;;;6.00;5.50;;;11.00;41.20;;;;;;10355079;28;20233;-71
2023/04/15 08:06:51;;;;;;;12.43;11.17;;;11.10;40.90;;;;;;10360560;28;20234;-71
2023/04/15 08:11:55;;;;;;;7.37;6.67;;;11.10;40.90;;;;;;10347634;28;20227;-71
2023/04/15 08:16:59;;;;;;;6.50;5.90;;;11.20;41.00;;;;;;10379216;28;20253;-72
2023/04/15 08:22:03;;;;;;;7.70;7.00;;;11.20;41.00;;;;;;10377917;28;20233;-71
2023/04/15 08:27:06;;;;;;;6.60;6.00;;;11.20;41.00;;;;;;10377628;28;20601;-73
2023/04/15 08:32:11;;;;;;;5.80;5.30;;;11.20;41.00;;;;;;10362272;28;20241;-74
2023/04/15 08:37:14;;;;;;;5.57;5.17;;;11.30;41.90;;;;;;10372293;28;20239;-74
2023/04/15 08:42:19;;;;;;;4.93;4.53;;;11.40;41.20;;;;;;10376347;28;20225;-74
2023/04/15 08:47:26;;;;;;;4.93;4.53;;;11.50;41.30;;;;;;10391646;28;20716;-74
2023/04/15 08:52:31;;;;;;;5.13;4.50;;;11.60;41.30;;;;;;10377379;28;20226;-75
2023/04/15 08:57:35;;;;;;;5.33;4.87;;;11.70;41.40;;;;;;10353378;28;20242;-72
2023/04/15 09:02:40;;;;;;;4.97;4.57;;;11.80;41.50;;;;;;10330633;28;20231;-73
2023/04/15 09:07:43;;;;;;;5.50;4.87;;;11.80;41.50;;;;;;10330848;28;20231;-72
2023/04/15 09:12:46;;;;;;;5.63;5.20;;;11.90;41.60;;;;;;10331107;28;20341;-71
2023/04/15 09:17:51;;;;;;;5.40;5.00;;;12.00;41.70;;;;;;10329183;28;20318;-71
2023/04/15 09:22:54;;;;;;;5.77;5.27;;;12.10;41.70;;;;;;10329865;28;20222;-72
2023/04/15 09:27:59;;;;;;;5.13;4.67;;;12.20;41.20;;;;;;10329363;28;20620;-72
2023/04/15 09:33:06;;;;;;;6.00;5.27;;;12.20;41.10;;;;;;10329856;28;20254;-72
2023/04/15 09:38:11;;;;;;;5.43;4.93;;;12.20;41.20;;;;;;10328759;28;20237;-71
2023/04/15 09:43:16;;;;;;;5.27;4.87;;;12.30;40.80;;;;;;10328725;28;20237;-71
2023/04/15 09:48:24;;;;;;;5.30;4.90;;;12.30;40.70;;;;;;10382083;28;20718;-72
2023/04/15 09:53:28;;;;;;;5.93;5.43;;;12.20;40.40;;;;;;10408954;28;20732;-71
2023/04/15 09:58:37;;;;;;;5.40;5.00;;;12.20;40.40;;;;;;10406421;28;20241;-71
2023/04/15 10:03:43;;;;;;;4.90;4.40;;;12.20;40.80;;;;;;10409066;28;20229;-72
2023/04/15 10:08:48;;;;;;;5.37;4.97;;;12.20;40.70;;;;;;10408940;28;20396;-72
2023/04/15 10:13:53;;;;;;;5.70;5.03;;;12.30;41.00;;;;;;10409599;28;20238;-72
2023/04/15 10:19:00;;;;;;;5.30;4.90;;;12.40;40.60;;;;;;10392810;28;20230;-72
2023/04/15 10:24:04;;;;;;;5.60;5.10;;;12.40;40.60;;;;;;10367205;28;20218;-71
2023/04/15 10:29:09;;;;;;;5.17;4.77;;;12.50;40.80;;;;;;10365045;28;20249;-71
2023/04/15 10:34:14;;;;;;;5.57;5.17;;;12.50;40.70;;;;;;10368466;28;20234;-71
2023/04/15 10:39:40;;;;;;;5.40;4.90;;;12.50;40.30;;;;;;10369534;28;20238;-72
2023/04/15 10:44:45;;;;;;;7.97;5.80;;;12.60;40.40;;;;;;10390727;28;20241;-71
2023/04/15 10:49:51;;;;;;;5.50;5.00;;;12.60;40.60;;;;;;10408839;28;20233;-72
2023/04/15 10:55:03;;;;;;;4.90;4.40;;;12.70;40.20;;;;;;10408314;28;20279;-70
2023/04/15 11:00:15;;;;;;;4.27;3.43;;;12.80;39.40;;;;;;10407667;28;20221;-72
2023/04/15 11:05:21;;;;;;;3.33;3.03;;;12.80;38.20;;;;;;10408991;28;20271;-72
2023/04/15 11:10:55;;;;;;;2.60;2.30;;;12.80;38.60;;;;;;10408886;28;20234;-72
2023/04/15 11:16:02;;;;;;;2.60;2.40;;;12.80;38.50;;;;;;10407404;28;20265;-70
2023/04/15 11:21:09;;;;;;;4.13;2.40;;;12.80;38.10;;;;;;10340115;28;20245;-71
2023/04/15 11:26:12;;;;;;;2.50;2.30;;;12.90;38.30;;;;;;10337655;28;20232;-70
2023/04/15 11:31:18;;;;;;;2.40;2.20;;;12.90;38.70;;;;;;10338842;28;20237;-70
2023/04/15 11:36:27;;;;;;;2.40;2.13;;;13.00;38.10;;;;;;10337635;28;20715;-70
2023/04/15 11:41:30;;;;;;;2.33;2.10;;;12.90;37.50;;;;;;10335458;28;20230;-71
2023/04/15 11:46:33;;;;;;;2.50;2.30;;;12.90;38.70;;;;;;10341582;28;20798;-70
2023/04/15 11:51:38;;;;;;;2.20;2.00;;;12.90;39.20;;;;;;10342988;28;20658;-71
2023/04/15 11:56:49;;;;;;;2.37;2.10;;;13.00;39.00;;;;;;10338296;28;20227;-70
2023/04/15 12:01:53;;;;;;;2.53;2.33;;;13.10;39.00;;;;;;10342177;28;20230;-70
2023/04/15 12:07:05;;;;;;;2.60;2.40;;;13.20;38.70;;;;;;10340385;28;20289;-70
2023/04/15 12:12:10;;;;;;;2.67;2.47;;;13.30;38.10;;;;;;10346395;28;20231;-70
2023/04/15 12:17:14;;;;;;;2.40;2.30;;;13.30;38.30;;;;;;10346257;28;20226;-70
2023/04/15 12:22:19;;;;;;;3.77;2.17;;;13.30;38.30;;;;;;10345297;28;20250;-70
2023/04/15 12:27:27;;;;;;;2.83;2.53;;;13.30;38.70;;;;;;10341029;28;20773;-71
2023/04/15 12:32:35;;;;;;;2.50;2.30;;;13.30;38.10;;;;;;10341761;28;20311;-71
2023/04/15 12:37:40;;;;;;;2.20;2.10;;;13.30;37.40;;;;;;10349157;28;20270;-71
2023/04/15 12:42:43;;;;;;;2.77;2.50;;;13.30;38.20;;;;;;10346583;28;20238;-72
2023/04/15 12:47:47;;;;;;;3.10;2.23;;;13.20;38.40;;;;;;10351906;28;20235;-71
2023/04/15 12:52:51;;;;;;;2.67;2.13;;;13.10;38.60;;;;;;10347647;28;20227;-70
2023/04/15 12:57:55;;;;;;;2.23;2.00;;;13.00;38.60;;;;;;10342924;28;20226;-70
2023/04/15 13:02:58;;;;;;;2.40;2.20;;;13.00;38.50;;;;;;10339942;28;20226;-71
2023/04/15 13:08:03;;;;;;;2.40;2.20;;;12.90;38.20;;;;;;10345654;28;20232;-70
2023/04/15 13:13:07;;;;;;;2.60;2.40;;;12.80;38.10;;;;;;10346618;28;20254;-70
2023/04/15 13:18:10;;;;;;;2.77;2.20;;;12.70;38.40;;;;;;10343187;28;20235;-70
2023/04/15 13:23:17;;;;;;;3.23;2.90;;;12.70;38.80;;;;;;10354403;28;20230;-71
2023/04/15 13:28:21;;;;;;;2.70;2.50;;;12.70;38.50;;;;;;10340031;28;20262;-70
2023/04/15 13:33:24;;;;;;;2.80;2.60;;;12.70;38.30;;;;;;10346684;28;20234;-71
2023/04/15 13:38:29;;;;;;;3.00;2.80;;;12.60;38.30;;;;;;10341768;28;20261;-70
2023/04/15 13:43:33;;;;;;;3.10;2.90;;;12.50;38.10;;;;;;10345237;28;20227;-71
2023/04/15 13:48:36;;;;;;;2.90;2.70;;;12.40;38.40;;;;;;10344461;28;20269;-71
2023/04/15 13:53:41;;;;;;;2.80;2.60;;;12.30;38.60;;;;;;10342365;28;20231;-71
2023/04/15 13:58:44;;;;;;;2.70;2.50;;;12.30;38.60;;;;;;10349566;28;20614;-71
2023/04/15 14:03:47;;;;;;;2.20;2.00;;;12.30;38.50;;;;;;10345609;28;20237;-70
2023/04/15 14:08:52;;;;;;;2.83;2.00;;;12.20;38.40;;;;;;10349286;28;20226;-70
2023/04/15 14:13:57;;;;;;;2.63;1.93;;;12.10;38.00;;;;;;10341558;28;20253;-70
2023/04/15 14:19:01;;;;;;;3.80;2.00;;;12.10;38.20;;;;;;10339296;28;20223;-70
2023/04/15 14:24:07;;;;;;;3.83;2.00;;;12.10;38.00;;;;;;10338656;28;20233;-70
2023/04/15 14:29:11;;;;;;;3.73;1.90;;;12.00;38.00;;;;;;10342761;28;20222;-70
2023/04/15 14:34:14;;;;;;;2.10;2.00;;;11.90;38.30;;;;;;10341839;28;20310;-70
2023/04/15 14:39:19;;;;;;;2.17;2.00;;;11.90;38.20;;;;;;10331546;28;20230;-71
2023/04/15 14:44:22;;;;;;;2.10;2.00;;;11.90;38.30;;;;;;10354635;28;20300;-70
2023/04/15 14:49:26;;;;;;;2.20;2.00;;;11.80;38.30;;;;;;10333587;28;20250;-70
2023/04/15 14:54:30;;;;;;;2.37;2.17;;;11.70;38.40;;;;;;10331802;28;20321;-72
2023/04/15 14:59:34;;;;;;;2.40;2.20;;;11.70;38.30;;;;;;10338279;28;20226;-71
2023/04/15 15:04:37;;;;;;;2.07;1.90;;;11.70;38.60;;;;;;10351336;28;20234;-71
2023/04/15 15:09:42;;;;;;;1.97;1.83;;;11.70;38.60;;;;;;10338675;28;20257;-71
2023/04/15 15:14:45;;;;;;;1.97;1.83;;;11.70;38.70;;;;;;10330074;28;20605;-71
2023/04/15 15:19:48;;;;;;;2.43;2.20;;;11.70;38.60;;;;;;10334261;28;20226;-71
2023/04/15 15:24:53;;;;;;;2.40;2.20;;;11.70;38.70;;;;;;10327649;28;20233;-69
2023/04/15 15:29:56;;;;;;;2.43;1.90;;;11.80;38.70;;;;;;10328409;28;20653;-71
2023/04/15 15:34:59;;;;;;;7.60;2.20;;;11.80;38.80;;;;;;10328965;28;20280;-70
2023/04/15 15:40:06;;;;;;;2.00;1.80;;;11.80;38.80;;;;;;10323539;28;20229;-72
2023/04/15 15:45:10;;;;;;;1.67;1.57;;;11.80;38.70;;;;;;10319569;28;20235;-70
2023/04/15 15:50:13;;;;;;;2.20;2.10;;;11.80;39.40;;;;;;10318241;28;20637;-70
2023/04/15 15:55:18;;;;;;;2.57;2.37;;;11.90;39.70;;;;;;10326115;28;21034;-70
2023/04/15 16:00:22;;;;;;;3.20;2.70;;;11.90;39.10;;;;;;10324565;28;20253;-69
2023/04/15 16:05:25;;;;;;;3.10;2.80;;;12.00;38.90;;;;;;10328895;28;20240;-70
2023/04/15 16:10:29;;;;;;;2.87;2.67;;;12.00;38.90;;;;;;10326150;28;20568;-70
2023/04/15 16:15:33;;;;;;;2.70;2.50;;;12.00;39.00;;;;;;10325449;28;20238;-71
2023/04/15 16:20:38;;;;;;;2.90;2.70;;;11.90;38.90;;;;;;10327428;28;20225;-70
2023/04/15 16:25:43;;;;;;;3.63;2.80;;;11.90;39.10;;;;;;10338275;28;20231;-70
2023/04/15 16:30:46;;;;;;;3.40;3.10;;;11.80;40.00;;;;;;10340773;28;20231;-70
2023/04/15 16:35:50;;;;;;;3.37;3.10;;;11.80;39.30;;;;;;10340396;28;20234;-70
2023/04/15 16:40:57;;;;;;;3.10;2.90;;;11.70;39.40;;;;;;10348695;28;20230;-70
2023/04/15 16:46:00;;;;;;;2.77;2.57;;;11.80;39.70;;;;;;10337765;28;20246;-70
2023/04/15 16:51:04;;;;;;;2.97;2.77;;;11.80;39.60;;;;;;10341001;28;20242;-70
2023/04/15 16:56:08;;;;;;;4.00;3.70;;;11.80;39.60;;;;;;10343359;28;20631;-70
2023/04/15 17:01:11;;;;;;;4.10;3.70;;;11.80;39.60;;;;;;10343799;28;20222;-70
2023/04/15 17:06:15;;;;;;;3.23;2.93;;;11.90;39.40;;;;;;10339544;28;20281;-70
2023/04/15 17:11:19;;;;;;;3.07;2.60;;;11.90;39.40;;;;;;10342238;28;20227;-70
2023/04/15 17:16:23;;;;;;;2.93;2.50;;;11.80;40.30;;;;;;10344332;28;20238;-70
2023/04/15 17:21:26;;;;;;;2.80;2.60;;;11.70;39.70;;;;;;10345609;28;20882;-71
2023/04/15 17:26:31;;;;;;;2.77;2.57;;;11.60;40.00;;;;;;10335260;28;20269;-70
2023/04/15 17:31:34;;;;;;;2.67;2.47;;;11.40;40.30;;;;;;10343861;28;20234;-71
2023/04/15 17:36:38;;;;;;;2.20;2.10;;;11.30;40.20;;;;;;10337163;28;20800;-69
2023/04/15 17:41:43;;;;;;;2.67;2.47;;;11.20;40.50;;;;;;10327824;28;20245;-70
2023/04/15 17:46:47;;;;;;;2.50;2.30;;;11.20;41.00;;;;;;10336150;28;20238;-70
2023/04/15 17:51:50;;;;;;;2.47;2.30;;;11.20;41.00;;;;;;10333430;28;20227;-72
2023/04/15 17:56:55;;;;;;;4.10;3.80;;;11.20;41.00;;;;;;10339448;28;20226;-70
2023/04/15 18:01:58;;;;;;;3.17;2.97;;;11.20;41.00;;;;;;10335727;28;20226;-70
2023/04/15 18:07:02;;;;;;;3.37;3.17;;;11.20;41.00;;;;;;10335874;28;20230;-71
2023/04/15 18:12:07;;;;;;;2.80;2.60;;;11.10;40.90;;;;;;10334943;28;20890;-70
2023/04/15 18:17:12;;;;;;;6.37;4.03;;;11.10;40.90;;;;;;10334896;28;20297;-71
2023/04/15 18:22:15;;;;;;;5.53;5.00;;;11.10;40.90;;;;;;10331531;23;20776;-68
2023/04/15 18:27:20;;;;;;;3.90;3.43;;;11.10;40.90;;;;;;10324713;28;20722;-68
2023/04/15 18:32:23;;;;;;;4.40;4.00;;;11.10;40.90;;;;;;10305172;28;20689;-69
2023/04/15 18:37:28;;;;;;;8.57;7.03;;;11.10;40.90;;;;;;10285978;28;20247;-69
2023/04/15 18:42:32;;;;;;;12.20;9.07;;;11.20;41.00;;;;;;10285352;28;20247;-68
2023/04/15 18:47:35;;;;;;;14.40;9.90;;;11.20;41.00;;;;;;10273585;28;20224;-69
2023/04/15 18:52:39;;;;;;;5.33;4.67;;;11.30;41.10;;;;;;10256017;28;20240;-70
2023/04/15 18:57:45;;;;;;;3.87;3.50;;;11.30;41.10;;;;;;10259628;28;20239;-71
2023/04/15 19:02:50;;;;;;;3.30;3.00;;;11.30;41.10;;;;;;10253382;28;20262;-71
2023/04/15 19:07:54;;;;;;;2.70;2.50;;;11.40;41.20;;;;;;10249927;28;20229;-71
2023/04/15 19:12:58;;;;;;;3.60;3.30;;;11.40;41.20;;;;;;10249105;28;20239;-71
2023/04/15 19:18:03;;;;;;;3.00;2.80;;;11.50;41.30;;;;;;10253568;28;20310;-70
2023/04/15 19:23:07;;;;;;;2.67;2.47;;;11.50;41.30;;;;;;10253591;28;20251;-71
2023/04/15 19:28:12;;;;;;;4.07;3.40;;;11.60;41.30;;;;;;10255538;28;20905;-71
2023/04/15 19:33:15;;;;;;;2.70;2.50;;;11.60;41.40;;;;;;10250728;28;20235;-71
2023/04/15 19:38:19;;;;;;;3.43;3.23;;;11.70;41.40;;;;;;10249988;28;20231;-71
2023/04/15 19:43:23;;;;;;;4.50;4.10;;;11.70;41.40;;;;;;10251640;28;20334;-70
2023/04/15 19:48:27;;;;;;;3.80;3.50;;;11.70;41.40;;;;;;10247232;28;20231;-69
2023/04/15 19:53:30;;;;;;;2.83;2.63;;;11.70;41.30;;;;;;10250571;28;20247;-69
2023/04/15 19:58:34;;;;;;;3.23;3.00;;;11.70;41.10;;;;;;10247134;28;20228;-70
2023/04/15 20:03:38;;;;;;;3.17;2.97;;;11.80;41.30;;;;;;10254738;28;20232;-69
2023/04/15 20:08:41;;;;;;;2.53;2.33;;;11.70;41.10;;;;;;10257569;28;20238;-71
2023/04/15 20:13:46;;;;;;;2.60;2.10;;;11.70;41.10;;;;;;10253132;28;20239;-70
2023/04/15 20:18:49;;;;;;;2.33;2.10;;;11.60;41.30;;;;;;10253823;28;20228;-70
2023/04/15 20:23:52;;;;;;;1.93;1.83;;;11.60;41.30;;;;;;10260888;28;20815;-71
2023/04/15 20:28:58;;;;;;;2.00;1.90;;;11.50;41.30;;;;;;10249949;28;20589;-70
2023/04/15 20:34:01;;;;;;;1.97;1.87;;;11.50;41.30;;;;;;10252963;28;20236;-71
2023/04/15 20:39:05;;;;;;;2.43;2.27;;;11.50;41.30;;;;;;10242447;28;20580;-71
2023/04/15 20:44:10;;;;;;;2.40;2.23;;;11.50;41.30;;;;;;10249240;28;20246;-69
2023/04/15 20:49:13;;;;;;;1.90;1.80;;;11.40;41.20;;;;;;10252225;28;20246;-69
2023/04/15 20:54:18;;;;;;;2.70;2.23;;;11.40;41.20;;;;;;10253058;28;20250;-69
2023/04/15 20:59:22;;;;;;;2.50;2.40;;;11.30;41.10;;;;;;10249194;28;20228;-69
2023/04/15 21:04:26;;;;;;;3.40;3.20;;;11.20;41.50;;;;;;10251291;28;20236;-70
2023/04/15 21:09:29;;;;;;;2.30;2.20;;;11.20;41.30;;;;;;10250370;28;20683;-69
2023/04/15 21:14:34;;;;;;;2.40;2.30;;;11.10;41.50;;;;;;10252820;28;20235;-69
2023/04/15 21:19:39;;;;;;;2.20;2.00;;;11.00;41.90;;;;;;10249262;28;20251;-70
2023/04/15 21:24:42;;;;;;;2.63;2.50;;;11.10;41.90;;;;;;10255357;28;20254;-69
2023/04/15 21:29:46;;;;;;;2.60;2.40;;;11.10;41.80;;;;;;10256276;28;20850;-69
2023/04/15 21:34:49;;;;;;;2.70;2.50;;;11.10;42.00;;;;;;10253265;28;20236;-69
2023/04/15 21:39:53;;;;;;;2.43;2.33;;;11.10;41.90;;;;;;10253496;28;21889;-69
2023/04/15 21:44:57;;;;;;;2.23;2.13;;;11.10;42.70;;;;;;10256690;28;20961;-69
2023/04/15 21:50:00;;;;;;;2.20;2.10;;;11.10;42.30;;;;;;10253909;28;20271;-70
2023/04/15 21:55:04;;;;;;;2.50;2.30;;;11.10;41.90;;;;;;10257006;28;20232;-69
2023/04/15 22:00:10;;;;;;;2.63;2.43;;;11.10;41.90;;;;;;10256324;28;20232;-72
2023/04/15 22:05:13;;;;;;;2.50;2.30;;;11.10;42.30;;;;;;10251294;28;20232;-71
2023/04/15 22:10:17;;;;;;;2.50;2.30;;;11.00;41.90;;;;;;10252743;28;20263;-72
2023/04/15 22:15:21;;;;;;;2.00;1.90;;;11.00;41.90;;;;;;10255756;28;20235;-71
2023/04/15 22:20:25;;;;;;;2.33;2.23;;;10.90;42.30;;;;;;10255527;28;20244;-71
2023/04/15 22:25:28;;;;;;;2.37;2.20;;;10.90;42.10;;;;;;10250592;28;20236;-71
2023/04/15 22:30:33;;;;;;;2.90;2.43;;;10.90;42.30;;;;;;10251398;28;20232;-71
2023/04/15 22:35:37;;;;;;;2.87;2.10;;;10.90;42.60;;;;;;10252582;28;20228;-72
2023/04/15 22:40:41;;;;;;;2.63;2.43;;;10.90;42.50;;;;;;10253525;28;20246;-71
2023/04/15 22:45:50;;;;;;;2.50;2.40;;;11.00;42.50;;;;;;10251756;28;20271;-72
2023/04/15 22:50:53;;;;;;;2.60;2.40;;;11.00;42.70;;;;;;10249732;28;20880;-71
2023/04/15 22:55:56;;;;;;;2.77;2.57;;;11.00;42.40;;;;;;10254464;28;20295;-72
2023/04/15 23:01:01;;;;;;;2.73;2.53;;;11.00;42.30;;;;;;10254846;28;20228;-72
2023/04/15 23:06:04;;;;;;;2.50;2.40;;;11.00;42.70;;;;;;10333105;28;20226;-71
2023/04/15 23:11:08;;;;;;;2.43;2.33;;;11.00;42.60;;;;;;10333285;28;20719;-72
2023/04/15 23:16:12;;;;;;;2.80;2.60;;;11.10;42.70;;;;;;10331110;28;20236;-71
2023/04/15 23:21:15;;;;;;;2.67;2.57;;;11.00;42.70;;;;;;10333130;28;20234;-71
2023/04/15 23:26:19;;;;;;;2.80;2.70;;;11.10;42.60;;;;;;10332811;28;20233;-74
2023/04/15 23:31:23;;;;;;;3.17;2.97;;;11.10;42.50;;;;;;10336274;28;20347;-71
2023/04/15 23:36:27;;;;;;;2.90;2.70;;;11.10;42.70;;;;;;10333402;28;20328;-71
2023/04/15 23:41:30;;;;;;;2.83;2.63;;;11.10;42.50;;;;;;10340707;28;20793;-71
2023/04/15 23:46:34;;;;;;;2.57;2.47;;;11.10;42.50;;;;;;10340600;28;20233;-71
2023/04/15 23:51:37;;;;;;;2.83;2.57;;;11.10;42.70;;;;;;10342160;28;20255;-71
2023/04/15 23:56:41;;;;;;;3.00;2.77;;;11.00;42.60;;;;;;10339055;28;20231;-71
